Aérodrome :
LOGIN :

S'inscrire | Disclaimer

   EN    FR    IT 

 










Légende :    VFR   VFR Marginal   IFR   IFR Intensif   IFR Très Intensif
Visi : 
Plafond : 
>= 8 km
>= 3000ft
5 à 8 km
1000 à 3000 ft
1500m à 5 km
500 à 1000 ft
800 à 1500m
200 à 500 ft
< 800m
< 200 ft
Symboles :   Orages  Brouillard  Fortes neiges  Fortes précipitations  Vent > 20 kt
SIGMETs :   Divers  Orages  Givrage  Turbulence  Onde Orograph.  Cendres Volcan.







- Altitude de l'aérodrome : 93 ft
- Code IATA : XRY


LEJR - Jerez

DERNIER METAR :
  • 232200Z AUTO 27004KT 240V310 CAVOK 18/15 Q1015

METARs EXPIRÉS :
  • 232130Z AUTO 20004KT CAVOK 18/14 Q1015
  • 232100Z 00000KT CAVOK 19/15 Q1014
  • 232030Z 26003KT 230V300 CAVOK 19/15 Q1014
  • 232000Z 26003KT 230V320 CAVOK 19/14 Q1014
  • 231930Z 27007KT 240V310 CAVOK 20/14 Q1014

TAF TAF LEJR
Valide du 23 à 18h jusqu'au 24 à 18h UTC


231700Z 2318/2418 27009KT CAVOK TX21/2412Z TN14/2406Z
PROB40
TEMPO 2323/2406 2000 TSRA SCT020CB
PROB40
TEMPO 2406/2412 4000 SHRA SCT020TCU FEW025CB
Pas de NOTAMs connus pour ce terrain.
1 SIGMET publié pour la FIR Madrid (LECM) :
 
Orages noyés dans la masse
LECM SIGMET 10 VALID 232100/232300 LEVA
LECM MADRID FIR/UIR EMBD TS OBS AT 2057Z WI N43 W00610 - N4250 W00250 - N4210 W00050 - N4020 W00140 - N41 W00630 - N43 W00610 TOP FL360 MOV NE 10KT NC=



MET'MAP, la Météo Aéronautique d'un coup d'oeil ! - Copyright ORBIFLY Décembre 2007 - Disclaimer

ORBIFLY MET'MAP TEAM :

Programmation & Développement : Alexandra Zaïnal
Conception & Développement : Baudouin d'Aumeries
Co-Programmation & Développement : Marc-Olivier Méhu
Soutien technique & logistique : Manuel Goepfert

Contact : metmap@orbifly.com




SOURCES & CREDITS :

   NOAA